Time;durP1;ratioP1;P1;durP2;ratioP2;P2;SDS_P1;SDS_P2;PMS_P1;PMS_P2;Temp;Humidity;BMP_temperature;BMP_pressure;BME280_temperature;BME280_humidity;BME280_pressure;Samples;Min_cycle;Max_cycle;Signal;HPM_P1;HPM_P2
2022/12/12 00:02:04;;;;;;;28.57;14.87;;;;;;;13.90;73.35;98897.66;1805320;78;21187;-77
2022/12/12 00:05:12;;;;;;;30.43;13.32;;;;;;;13.77;73.81;98884.91;1807463;78;21161;-78
2022/12/12 00:08:17;;;;;;;29.87;13.43;;;;;;;13.61;74.28;98892.43;1812828;78;21158;-77
2022/12/12 00:11:23;;;;;;;31.87;14.07;;;;;;;13.60;74.73;98890.73;1805455;79;21160;-77
2022/12/12 00:14:28;;;;;;;32.55;13.98;;;;;;;13.19;76.44;98890.33;1791006;79;21171;-77
2022/12/12 00:17:28;;;;;;;27.73;13.67;;;;;;;13.48;76.00;98905.78;1821617;78;21196;-78
2022/12/12 00:20:33;;;;;;;25.62;12.95;;;;;;;13.91;73.75;98906.20;1791222;80;21744;-78
2022/12/12 00:23:39;;;;;;;26.80;13.70;;;;;;;13.37;75.41;98910.14;1823612;78;21141;-78
2022/12/12 00:26:47;;;;;;;30.95;12.58;;;;;;;13.26;76.05;98908.12;1791254;80;21132;-78
2022/12/12 00:29:52;;;;;;;31.73;13.40;;;;;;;13.28;75.49;98912.88;1823568;78;21192;-78
2022/12/12 00:32:57;;;;;;;21.85;12.23;;;;;;;13.12;75.99;98914.80;1791181;80;21175;-78
2022/12/12 00:36:02;;;;;;;27.32;14.00;;;;;;;13.20;76.22;98920.00;1823030;78;21192;-78
2022/12/12 00:39:08;;;;;;;27.90;13.28;;;;;;;13.21;76.09;98906.57;1823794;78;21133;-77
2022/12/12 00:42:14;;;;;;;23.55;12.47;;;;;;;13.54;75.38;98916.68;1823871;78;21160;-78
2022/12/12 00:45:20;;;;;;;26.20;12.82;;;;;;;13.54;75.19;98906.23;1823841;78;21738;-78
2022/12/12 00:48:26;;;;;;;30.57;13.83;;;;;;;13.51;75.67;98907.55;1822538;78;21748;-78
2022/12/12 00:51:32;;;;;;;26.05;12.90;;;;;;;13.60;75.46;98909.96;1823894;78;21164;-78
2022/12/12 00:54:38;;;;;;;25.45;12.53;;;;;;;13.59;75.32;98906.91;1824027;78;21180;-77
2022/12/12 00:57:44;;;;;;;22.32;12.35;;;;;;;13.67;75.13;98899.20;1823801;78;21215;-77
2022/12/12 01:00:50;;;;;;;25.00;13.30;;;;;;;13.69;75.52;98911.33;1824094;78;21204;-78
2022/12/12 01:03:55;;;;;;;23.92;11.53;;;;;;;13.77;75.29;98915.14;1824068;78;21768;-78
2022/12/12 01:07:01;;;;;;;22.05;11.18;;;;;;;14.11;73.65;98914.16;1824381;78;21180;-77
2022/12/12 01:10:06;;;;;;;26.95;12.37;;;;;;;14.04;73.97;98923.34;1824000;78;21197;-78
2022/12/12 01:13:12;;;;;;;26.85;11.97;;;;;;;13.72;74.82;98919.95;1823832;78;21714;-77
2022/12/12 01:16:18;;;;;;;28.75;12.05;;;;;;;13.80;74.62;98924.31;1823810;78;21765;-77
2022/12/12 01:19:25;;;;;;;27.32;11.63;;;;;;;13.52;75.37;98925.70;1822422;78;21200;-78
2022/12/12 01:22:30;;;;;;;37.13;12.43;;;;;;;13.54;75.54;98915.84;1824542;78;21153;-78
2022/12/12 01:25:34;;;;;;;30.43;12.23;;;;;;;13.36;76.12;98907.09;1824383;78;21219;-78
2022/12/12 01:28:41;;;;;;;29.37;12.45;;;;;;;13.22;76.24;98911.89;1824417;78;21141;-77
2022/12/12 01:31:47;;;;;;;25.43;11.45;;;;;;;12.96;76.94;98906.62;1824442;78;21176;-77
2022/12/12 01:34:52;;;;;;;25.27;12.40;;;;;;;13.00;76.77;98911.44;1824372;78;21196;-77
2022/12/12 01:37:58;;;;;;;26.62;12.07;;;;;;;13.08;76.60;98913.06;1824442;78;21177;-78
2022/12/12 01:41:04;;;;;;;23.62;12.33;;;;;;;13.26;75.91;98916.37;1824349;78;21189;-78
2022/12/12 01:44:11;;;;;;;24.30;11.30;;;;;;;13.09;76.16;98912.52;1794204;78;21156;-77
2022/12/12 01:47:17;;;;;;;19.20;11.20;;;;;;;12.96;76.14;98907.99;1763006;81;21206;-78
2022/12/12 01:50:22;;;;;;;19.42;11.60;;;;;;;12.87;76.67;98914.83;1794242;80;21180;-77
2022/12/12 01:53:28;;;;;;;24.87;11.80;;;;;;;12.71;76.58;98894.30;1762918;81;21147;-78
2022/12/12 01:56:34;;;;;;;26.87;12.63;;;;;;;12.47;77.50;98898.19;1774435;81;21149;-77
2022/12/12 01:59:39;;;;;;;28.73;11.75;;;;;;;12.27;77.89;98891.45;1794275;80;21184;-78
2022/12/12 02:02:45;;;;;;;24.20;11.25;;;;;;;12.52;76.58;98882.44;1763025;81;21175;-77
2022/12/12 02:06:00;;;;;;;23.00;11.80;;;;;;;12.48;76.48;98898.48;1794229;80;21236;-77
2022/12/12 02:09:09;;;;;;;30.37;11.48;;;;;;;12.66;75.56;98894.97;1762970;80;21191;-78
2022/12/12 02:12:16;;;;;;;24.80;11.60;;;;;;;12.62;75.41;98901.97;1792611;80;21224;-78
2022/12/12 02:15:22;;;;;;;25.25;11.28;;;;;;;12.67;75.15;98898.02;1762951;80;21783;-77
2022/12/12 02:18:56;;;;;;;24.00;11.30;;;;;;;12.97;73.54;98902.80;1792981;80;21184;-78
2022/12/12 02:22:24;;;;;;;25.60;12.50;;;;;;;13.06;73.05;98904.20;1774319;81;21153;-77
2022/12/12 02:25:46;;;;;;;32.25;11.18;;;;;;;12.71;73.93;98905.27;1774260;81;21197;-77
2022/12/12 02:29:05;;;;;;;20.62;10.82;;;;;;;13.01;72.86;98908.16;1774329;81;21138;-78
2022/12/12 02:32:16;;;;;;;27.48;11.08;;;;;;;13.38;71.23;98902.20;1774286;81;21196;-78
2022/12/12 02:35:36;;;;;;;27.58;10.35;;;;;;;12.77;73.20;98909.86;1774193;81;21177;-77
2022/12/12 02:38:55;;;;;;;29.27;12.10;;;;;;;12.93;73.70;98909.27;1774274;81;21224;-78
2022/12/12 02:42:06;;;;;;;27.93;11.90;;;;;;;12.35;75.48;98915.03;1774313;81;21177;-77
2022/12/12 02:45:22;;;;;;;;;;;;;;;12.44;75.75;98912.87;1776888;81;21220;-77
2022/12/12 02:48:38;;;;;;;24.60;12.25;;;;;;;12.55;75.39;98918.99;1774305;81;20191;-77
2022/12/12 02:51:45;;;;;;;22.80;11.08;;;;;;;12.57;75.23;98905.08;1774383;81;21690;-77
2022/12/12 02:54:51;;;;;;;30.77;11.95;;;;;;;12.35;76.12;98908.71;1774258;81;21216;-78
2022/12/12 02:57:57;;;;;;;23.55;12.30;;;;;;;12.17;77.24;98902.61;1774239;81;21197;-76
2022/12/12 03:01:16;;;;;;;19.62;11.63;;;;;;;12.15;77.39;98907.48;1774253;81;21201;-79
2022/12/12 03:08:31;;;;;;;22.13;11.75;;;;;;;12.21;77.20;98907.42;1774239;81;21784;-76
2022/12/12 03:11:52;;;;;;;29.87;12.20;;;;;;;12.18;77.34;98916.61;1774239;81;21216;-76
2022/12/12 03:15:18;;;;;;;29.50;14.40;;;;;;;12.25;77.18;98910.04;1773724;81;21200;-75
2022/12/12 03:18:46;;;;;;;22.35;12.40;;;;;;;12.16;77.88;98895.45;1774404;81;21180;-78
2022/12/12 03:22:18;;;;;;;25.45;11.95;;;;;;;12.21;77.97;98911.53;1774571;80;21637;-76
2022/12/12 03:25:56;;;;;;;26.62;12.78;;;;;;;12.24;77.82;98913.02;1774494;81;21205;-79
2022/12/12 03:29:10;;;;;;;29.20;13.58;;;;;;;11.82;79.33;98905.77;1774435;81;21716;-75
2022/12/12 03:32:20;;;;;;;27.40;14.35;;;;;;;11.83;79.97;98907.97;1774478;81;21153;-79
2022/12/12 03:35:36;;;;;;;26.05;13.55;;;;;;;11.95;79.89;98919.41;1774601;81;21730;-78
2022/12/12 03:38:40;;;;;;;31.82;15.65;;;;;;;11.83;80.51;98903.33;1768182;81;21870;-76
2022/12/12 03:41:37;;;;;;;26.20;12.37;;;;;;;12.01;80.37;98905.34;1774475;81;21157;-79
2022/12/12 03:45:09;;;;;;;23.87;13.20;;;;;;;11.92;80.91;98901.19;1774403;81;21228;-75
2022/12/12 03:48:21;;;;;;;27.65;13.45;;;;;;;12.06;80.95;98894.56;1757696;81;21161;-76
2022/12/12 03:51:32;;;;;;;30.70;14.05;;;;;;;12.30;80.15;98897.04;1774744;79;21217;-75
2022/12/12 03:54:45;;;;;;;28.17;12.88;;;;;;;12.20;81.04;98906.28;1774330;81;21763;-76
2022/12/12 03:57:57;;;;;;;28.92;13.22;;;;;;;12.23;81.09;98915.42;1774599;81;21147;-78
2022/12/12 04:01:06;;;;;;;30.88;13.65;;;;;;;12.30;81.06;98917.59;1773133;81;21202;-78
2022/12/12 04:04:17;;;;;;;25.80;13.43;;;;;;;12.09;81.77;98909.71;1774387;81;21159;-78
2022/12/12 04:07:26;;;;;;;32.00;14.07;;;;;;;12.32;81.12;98911.89;1774305;81;21198;-76
2022/12/12 04:14:22;;;;;;;30.02;13.13;;;;;;;12.13;81.92;98915.06;1774443;81;21591;-78
2022/12/12 04:17:31;;;;;;;28.30;13.85;;;;;;;11.89;83.18;98912.03;1745503;81;21197;-77
2022/12/12 04:24:39;;;;;;;32.85;13.75;;;;;;;12.22;82.07;98897.30;1794166;80;21161;-75
2022/12/12 04:27:50;;;;;;;26.82;13.72;;;;;;;12.21;81.76;98897.83;1794170;80;21165;-79
2022/12/12 04:30:56;;;;;;;24.95;13.65;;;;;;;12.17;81.90;98900.70;1793012;80;21206;-76
2022/12/12 04:34:07;;;;;;;28.02;14.05;;;;;;;12.10;82.23;98912.78;1794103;80;21745;-76
2022/12/12 04:37:15;;;;;;;30.55;14.05;;;;;;;11.97;82.71;98904.94;1794336;80;21217;-75
2022/12/12 04:40:30;;;;;;;28.32;14.03;;;;;;;11.93;83.01;98902.86;1794379;80;21229;-76
2022/12/12 04:43:39;;;;;;;29.02;14.00;;;;;;;11.95;82.67;98906.20;1794343;80;21137;-76
2022/12/12 04:46:44;;;;;;;28.40;15.43;;;;;;;11.78;83.44;98900.38;1794310;80;21158;-76
2022/12/12 04:49:49;;;;;;;31.17;14.73;;;;;;;11.97;82.60;98887.66;1794298;80;21173;-77
2022/12/12 04:52:55;;;;;;;29.25;15.60;;;;;;;11.94;82.60;98893.03;1794287;80;21185;-76
2022/12/12 04:56:03;;;;;;;31.77;16.25;;;;;;;11.77;83.37;98886.38;1794245;80;21229;-76
2022/12/12 04:59:10;;;;;;;28.98;15.60;;;;;;;11.63;83.77;98880.66;1794212;80;21154;-76
2022/12/12 05:02:32;;;;;;;32.33;14.83;;;;;;;11.60;84.45;98885.19;1794302;80;21138;-76
2022/12/12 05:06:10;;;;;;;27.60;15.32;;;;;;;11.68;84.12;98879.47;1794223;80;21554;-76
2022/12/12 05:09:15;;;;;;;27.73;15.25;;;;;;;11.43;84.62;98889.80;1794245;80;21134;-76
2022/12/12 05:12:22;;;;;;;32.40;15.60;;;;;;;11.57;84.13;98886.45;1826575;78;21185;-77
2022/12/12 05:15:30;;;;;;;30.45;15.70;;;;;;;11.48;84.45;98891.35;1794181;80;21159;-76
2022/12/12 05:18:38;;;;;;;28.83;16.12;;;;;;;11.40;84.41;98891.58;1806305;79;21154;-76
2022/12/12 05:21:42;;;;;;;30.08;15.28;;;;;;;11.32;84.94;98889.61;1788877;80;21209;-77
2022/12/12 05:24:48;;;;;;;33.40;16.00;;;;;;;11.40;84.74;98882.00;1764284;80;21720;-76
2022/12/12 05:27:46;;;;;;;26.12;15.88;;;;;;;11.41;84.34;98887.78;1787244;80;22087;-77
2022/12/12 05:30:40;;;;;;;32.23;16.57;;;;;;;11.25;84.81;98882.27;1786101;80;21218;-76
2022/12/12 05:33:25;;;;;;;32.58;17.20;;;;;;;11.13;85.33;98876.30;1787099;80;21161;-76
2022/12/12 05:36:19;;;;;;;33.70;17.45;;;;;;;11.12;85.26;98874.63;1785804;80;21192;-76
2022/12/12 05:39:25;;;;;;;34.92;18.60;;;;;;;11.12;84.88;98879.56;1787212;80;21729;-77
2022/12/12 05:42:23;;;;;;;36.80;17.15;;;;;;;11.18;84.35;98872.39;1759766;81;21229;-77
2022/12/12 05:45:28;;;;;;;32.90;17.42;;;;;;;11.12;84.73;98869.98;1787262;80;21211;-77
2022/12/12 05:48:33;;;;;;;38.00;18.02;;;;;;;11.27;83.68;98876.57;1783982;79;21167;-76
2022/12/12 05:51:39;;;;;;;33.02;16.77;;;;;;;11.35;83.23;98866.76;1751503;80;21152;-76
2022/12/12 05:54:45;;;;;;;30.97;16.77;;;;;;;11.43;82.76;98881.58;1782877;79;21175;-77
2022/12/12 05:57:51;;;;;;;29.65;15.20;;;;;;;11.49;82.39;98875.23;1785149;79;21191;-76
2022/12/12 06:00:57;;;;;;;30.23;15.83;;;;;;;11.48;82.28;98880.40;1781140;79;21141;-76
2022/12/12 06:04:06;;;;;;;31.33;16.00;;;;;;;11.51;82.11;98874.47;1753776;80;21140;-76
2022/12/12 06:07:12;;;;;;;33.55;16.25;;;;;;;11.70;81.56;98871.86;1751276;81;21193;-78
2022/12/12 06:10:18;;;;;;;36.58;17.77;;;;;;;11.59;81.89;98883.52;1755183;81;21803;-78
2022/12/12 06:13:24;;;;;;;30.20;16.87;;;;;;;11.44;82.53;98877.78;1784847;80;21189;-77
2022/12/12 06:16:30;;;;;;;35.38;17.85;;;;;;;11.64;82.11;98874.95;1777890;80;21234;-77
2022/12/12 06:19:36;;;;;;;37.75;20.12;;;;;;;11.55;82.53;98870.77;1776071;79;21739;-77
2022/12/12 06:22:35;;;;;;;36.88;20.10;;;;;;;11.55;82.67;98874.05;1774083;79;21167;-76
2022/12/12 06:25:30;;;;;;;40.30;20.40;;;;;;;11.72;82.25;98875.23;1762358;80;21187;-77
2022/12/12 06:28:35;;;;;;;35.80;18.32;;;;;;;11.70;82.47;98882.28;1779421;80;21662;-76
2022/12/12 06:31:41;;;;;;;30.05;17.45;;;;;;;11.58;82.77;98889.52;1798324;79;21192;-77
2022/12/12 06:34:48;;;;;;;35.08;16.82;;;;;;;11.70;82.65;98893.77;1779211;77;21180;-78
2022/12/12 06:41:51;;;;;;;35.38;17.87;;;;;;;11.72;82.84;98908.94;1782645;77;21700;-78
2022/12/12 06:44:58;;;;;;;30.43;16.55;;;;;;;11.77;82.87;98925.56;1779310;78;21155;-77
2022/12/12 06:48:03;;;;;;;38.63;16.23;;;;;;;11.49;83.78;98927.78;1788342;77;21156;-78
2022/12/12 06:51:36;;;;;;;35.03;18.37;;;;;;;11.73;82.72;98924.31;1787197;77;21275;-79
2022/12/12 06:54:38;;;;;;;36.10;18.05;;;;;;;11.58;83.05;98916.91;1789088;77;21152;-79
2022/12/12 06:57:38;;;;;;;38.67;17.07;;;;;;;11.52;83.13;98906.80;1780935;77;21148;-77
2022/12/12 07:00:44;;;;;;;37.90;17.05;;;;;;;11.38;83.65;98902.42;1779288;78;21204;-78
2022/12/12 07:03:51;;;;;;;31.85;17.45;;;;;;;11.51;83.36;98899.11;1780764;78;21256;-76
2022/12/12 07:06:57;;;;;;;35.23;18.85;;;;;;;11.44;83.14;98895.58;1775998;77;21156;-76
2022/12/12 07:10:02;;;;;;;34.08;17.87;;;;;;;11.20;83.80;98896.30;1791883;77;21714;-77
2022/12/12 07:13:07;;;;;;;31.10;17.35;;;;;;;11.14;84.47;98904.80;1804960;77;21714;-76
2022/12/12 07:16:13;;;;;;;35.85;17.40;;;;;;;11.31;83.45;98892.88;1805080;77;21152;-77
2022/12/12 07:19:21;;;;;;;34.55;19.25;;;;;;;11.34;83.70;98917.09;1776938;79;21211;-77
2022/12/12 07:22:27;;;;;;;35.70;17.45;;;;;;;11.45;83.01;98908.20;1774377;79;21258;-78
2022/12/12 07:25:32;;;;;;;32.63;17.17;;;;;;;11.49;82.49;98933.27;1778363;79;21214;-78
2022/12/12 07:28:37;;;;;;;34.10;17.32;;;;;;;11.76;81.21;98938.95;1779081;79;21147;-78
2022/12/12 07:31:43;;;;;;;39.15;18.17;;;;;;;11.77;80.18;98932.94;1783151;79;21890;-78
2022/12/12 07:34:47;;;;;;;36.93;18.30;;;;;;;11.72;80.46;98938.23;1775267;79;21772;-78
2022/12/12 07:37:53;;;;;;;30.60;17.62;;;;;;;11.67;80.40;98938.05;1779583;79;21148;-78
2022/12/12 07:40:57;;;;;;;32.67;17.07;;;;;;;11.78;79.92;98933.25;1779954;79;21152;-78
2022/12/12 07:44:03;;;;;;;35.98;18.05;;;;;;;11.57;80.45;98932.16;1796490;78;21136;-78
2022/12/12 07:47:10;;;;;;;31.85;17.65;;;;;;;11.26;81.41;98933.74;1784752;78;21732;-78
2022/12/12 07:50:15;;;;;;;38.48;17.45;;;;;;;11.42;80.92;98922.84;1791827;78;21132;-78
2022/12/12 07:53:21;;;;;;;32.38;17.95;;;;;;;11.13;81.90;98924.19;1784553;78;21152;-78
2022/12/12 07:56:28;;;;;;;39.23;19.48;;;;;;;11.61;80.03;98934.78;1790276;78;21448;-78
2022/12/12 07:59:33;;;;;;;32.48;17.02;;;;;;;11.46;80.38;98944.63;1786098;78;21800;-77
2022/12/12 08:02:39;;;;;;;33.20;17.10;;;;;;;11.49;80.36;98926.42;1788410;78;21148;-77
2022/12/12 08:05:51;;;;;;;33.38;17.12;;;;;;;11.82;78.79;98939.14;1783899;78;21147;-77
2022/12/12 08:08:57;;;;;;;35.23;17.12;;;;;;;12.03;77.72;98954.75;1792010;78;21199;-77
2022/12/12 08:12:03;;;;;;;31.75;17.05;;;;;;;11.99;77.63;98967.20;1791733;78;21143;-77
2022/12/12 08:15:08;;;;;;;36.08;17.42;;;;;;;11.91;77.35;98963.90;1793140;78;21155;-77
2022/12/12 08:18:13;;;;;;;47.38;18.73;;;;;;;11.85;77.64;98962.00;1800792;78;21202;-77
2022/12/12 08:21:21;;;;;;;34.95;17.52;;;;;;;11.87;77.45;98938.83;1798859;78;21772;-77
2022/12/12 08:24:28;;;;;;;32.50;16.82;;;;;;;11.89;77.18;98940.80;1782793;78;21184;-77
2022/12/12 08:27:34;;;;;;;36.10;17.42;;;;;;;11.54;78.12;98937.56;1788551;78;21147;-77
2022/12/12 08:30:39;;;;;;;38.23;19.27;;;;;;;11.55;78.65;98941.14;1801170;78;21176;-77
2022/12/12 08:34:40;;;;;;;34.67;18.73;;;;;;;11.68;77.62;98949.31;1780021;78;24110;-76
2022/12/12 08:37:46;;;;;;;40.73;18.30;;;;;;;11.48;77.51;98938.43;1756851;80;21598;-76
2022/12/12 08:40:52;;;;;;;37.15;18.40;;;;;;;11.34;77.87;98930.78;1759715;79;21135;-75
2022/12/12 08:43:57;;;;;;;34.23;18.48;;;;;;;11.42;77.40;98922.84;1763811;80;21756;-76
2022/12/12 08:47:02;;;;;;;35.63;18.42;;;;;;;11.07;78.60;98923.68;1765064;80;21146;-76
2022/12/12 08:50:08;;;;;;;30.55;18.23;;;;;;;11.10;78.75;98915.86;1753084;79;21174;-76
2022/12/12 08:53:13;;;;;;;36.60;18.90;;;;;;;11.06;78.98;98924.21;1761474;79;21758;-80
2022/12/12 08:56:18;;;;;;;37.85;18.73;;;;;;;10.95;79.19;98909.27;1751758;80;21187;-80
2022/12/12 08:59:24;;;;;;;35.45;19.35;;;;;;;10.73;80.95;98916.04;1785537;79;21207;-79
2022/12/12 09:02:29;;;;;;;37.45;19.80;;;;;;;10.80;80.31;98894.98;1784203;79;21140;-79
2022/12/12 09:05:36;;;;;;;36.48;19.35;;;;;;;11.04;79.39;98903.58;1791819;79;21183;-78
2022/12/12 09:08:43;;;;;;;36.93;19.20;;;;;;;11.30;78.63;98902.69;1784830;79;21485;-78
2022/12/12 09:11:49;;;;;;;38.67;19.42;;;;;;;10.78;79.83;98899.00;1748409;80;21211;-77
2022/12/12 09:14:55;;;;;;;31.15;17.62;;;;;;;10.51;81.99;98898.16;1749001;80;21187;-78
2022/12/12 09:18:01;;;;;;;40.20;19.65;;;;;;;10.44;82.89;98896.28;1785316;79;21139;-80
2022/12/12 09:21:07;;;;;;;37.48;20.08;;;;;;;10.77;82.06;98899.50;1750632;80;21819;-79
2022/12/12 09:24:12;;;;;;;38.17;20.02;;;;;;;10.60;82.50;98897.73;1749837;80;21195;-79
2022/12/12 09:27:17;;;;;;;38.83;18.98;;;;;;;10.71;82.40;98892.15;1751869;80;21133;-79
2022/12/12 09:30:22;;;;;;;32.85;18.60;;;;;;;10.52;83.65;98888.37;1752847;80;21725;-79
2022/12/12 09:33:21;;;;;;;35.00;19.12;;;;;;;10.55;83.56;98889.33;1751979;80;21180;-79
2022/12/12 09:36:27;;;;;;;40.40;18.87;;;;;;;10.43;84.23;98893.20;1751364;80;21159;-79
2022/12/12 09:39:32;;;;;;;34.38;17.67;;;;;;;10.58;84.01;98890.25;1747213;80;21151;-79
2022/12/12 09:42:39;;;;;;;34.50;18.32;;;;;;;10.89;82.91;98884.66;1749418;80;21183;-78
2022/12/12 09:45:44;;;;;;;31.42;19.20;;;;;;;10.27;84.46;98884.06;1754018;80;21167;-78
2022/12/12 09:48:53;;;;;;;34.43;17.98;;;;;;;10.37;85.83;98876.81;1747290;81;21181;-79
2022/12/12 09:52:00;;;;;;;35.10;18.17;;;;;;;10.48;85.10;98881.64;1775275;79;21136;-79
2022/12/12 09:55:06;;;;;;;37.75;18.35;;;;;;;10.34;85.05;98864.92;1773851;80;21218;-78
2022/12/12 09:58:25;;;;;;;35.75;18.57;;;;;;;10.82;85.18;98874.24;1747308;81;21748;-80
2022/12/12 10:01:56;;;;;;;38.20;18.00;;;;;;;11.19;83.14;98874.06;1740790;81;21175;-79
2022/12/12 10:05:27;;;;;;;29.70;17.00;;;;;;;10.36;86.24;98867.77;1737752;81;21203;-79
2022/12/12 10:09:10;;;;;;;29.32;17.25;;;;;;;10.37;86.29;98855.78;1738302;81;21155;-79
2022/12/12 10:12:19;;;;;;;32.90;17.10;;;;;;;10.27;87.30;98856.73;1748029;81;21167;-75
2022/12/12 10:15:43;;;;;;;33.80;16.05;;;;;;;10.15;87.88;98850.16;1747375;81;21202;-75
2022/12/12 10:18:56;;;;;;;33.05;16.60;;;;;;;10.15;88.55;98846.91;1753727;81;21685;-75
2022/12/12 10:22:03;;;;;;;31.03;16.23;;;;;;;10.35;87.79;98851.06;1748114;81;21732;-75
2022/12/12 10:25:27;;;;;;;29.92;15.65;;;;;;;10.47;87.69;98845.27;1741394;81;21208;-76
2022/12/12 10:28:35;;;;;;;29.10;15.53;;;;;;;10.52;87.11;98855.56;1753798;81;21160;-75
2022/12/12 10:31:55;;;;;;;22.62;13.00;;;;;;;10.66;86.56;98839.98;1747772;80;21151;-75
2022/12/12 10:35:29;;;;;;;24.67;11.90;;;;;;;10.84;85.83;98846.17;1752889;80;21170;-79
2022/12/12 10:38:54;;;;;;;16.57;10.65;;;;;;;10.96;85.09;98844.44;1728864;81;21172;-79
2022/12/12 10:42:30;;;;;;;18.17;10.23;;;;;;;11.03;84.93;98854.02;1760424;80;21551;-76
2022/12/12 10:46:01;;;;;;;15.90;9.55;;;;;;;10.87;85.16;98847.95;1731716;81;21179;-76
2022/12/12 10:49:08;;;;;;;20.43;10.43;;;;;;;10.93;85.20;98853.94;1702101;84;21209;-75
2022/12/12 10:52:24;;;;;;;16.93;10.68;;;;;;;10.92;85.12;98843.22;1725614;82;21184;-75
2022/12/12 10:55:53;;;;;;;17.87;10.48;;;;;;;10.90;85.11;98836.56;1723475;82;21271;-75
2022/12/12 10:59:04;;;;;;;14.33;8.98;;;;;;;11.05;84.90;98839.58;1757673;80;21159;-75
2022/12/12 11:02:09;;;;;;;15.28;10.10;;;;;;;11.12;84.25;98837.15;1726338;82;21171;-75
2022/12/12 11:05:23;;;;;;;18.12;10.30;;;;;;;10.92;85.04;98829.00;1738590;80;21214;-76
2022/12/12 11:08:37;;;;;;;15.18;9.20;;;;;;;10.89;85.02;98829.42;1726472;80;21167;-75
2022/12/12 11:11:45;;;;;;;18.60;9.13;;;;;;;10.83;85.60;98828.09;1726121;81;21239;-75
2022/12/12 11:15:00;;;;;;;16.57;9.43;;;;;;;10.83;85.83;98830.29;1729907;81;21247;-79
2022/12/12 11:18:07;;;;;;;16.12;9.08;;;;;;;10.93;85.27;98820.27;1715062;81;21149;-75
2022/12/12 11:21:19;;;;;;;15.70;9.53;;;;;;;10.96;85.24;98820.69;1724358;82;22100;-75
2022/12/12 11:24:29;;;;;;;15.30;9.30;;;;;;;10.99;84.88;98825.70;1712301;81;21274;-75
2022/12/12 11:27:41;;;;;;;15.35;9.85;;;;;;;11.08;84.91;98820.01;1739354;80;21190;-75
2022/12/12 11:30:48;;;;;;;17.70;8.85;;;;;;;11.03;85.04;98823.92;1723955;80;21165;-75
2022/12/12 11:33:55;;;;;;;14.50;9.20;;;;;;;11.17;83.96;98815.98;1730633;82;21145;-75
2022/12/12 11:37:00;;;;;;;12.95;8.65;;;;;;;10.99;85.21;98822.14;1722790;81;21176;-75
2022/12/12 11:40:07;;;;;;;15.38;9.48;;;;;;;11.25;84.08;98823.42;1707394;83;21201;-75
2022/12/12 11:43:24;;;;;;;18.30;9.58;;;;;;;11.35;83.66;98822.95;1734208;82;22178;-75
2022/12/12 11:46:38;;;;;;;14.78;9.65;;;;;;;11.70;82.46;98825.30;1731524;81;21588;-78
2022/12/12 11:49:44;;;;;;;15.70;9.13;;;;;;;10.89;85.87;98821.22;1733808;81;21152;-78
2022/12/12 11:52:49;;;;;;;17.62;10.32;;;;;;;10.57;87.49;98809.82;1691738;81;21223;-77
2022/12/12 11:56:30;;;;;;;19.87;10.00;;;;;;;10.92;87.37;98813.96;1727750;81;21198;-77
2022/12/12 12:00:08;;;;;;;14.65;10.28;;;;;;;11.28;85.15;98811.18;1701752;82;21175;-75
2022/12/12 12:03:30;;;;;;;17.25;9.88;;;;;;;10.86;86.39;98815.33;1705556;84;21156;-75
2022/12/12 12:06:49;;;;;;;16.97;9.53;;;;;;;10.69;88.19;98813.59;1736792;82;21293;-76
2022/12/12 12:10:50;;;;;;;15.25;9.80;;;;;;;11.13;86.45;98816.09;1714785;82;21157;-79
2022/12/12 12:14:12;;;;;;;16.25;9.23;;;;;;;11.18;86.10;98815.75;1736501;82;21244;-76
2022/12/12 12:17:51;;;;;;;19.98;9.15;;;;;;;11.14;86.63;98816.40;1743616;81;21199;-80
2022/12/12 12:21:26;;;;;;;14.15;8.50;;;;;;;10.87;86.84;98812.40;1741693;81;21164;-75
2022/12/12 12:24:45;;;;;;;14.23;8.00;;;;;;;11.31;86.13;98817.60;1721562;81;21203;-81
2022/12/12 12:28:35;;;;;;;14.20;7.70;;;;;;;11.30;85.47;98815.92;1738976;82;21745;-75
2022/12/12 12:32:08;;;;;;;11.97;7.12;;;;;;;11.33;85.68;98818.21;1735408;80;21171;-79
2022/12/12 12:35:35;;;;;;;10.82;7.25;;;;;;;11.37;85.25;98823.56;1759924;79;21601;-75
2022/12/12 12:39:26;;;;;;;12.58;7.60;;;;;;;11.32;85.56;98824.75;1773600;80;21196;-76
2022/12/12 12:42:49;;;;;;;;;;;;;;;11.31;85.59;98816.23;1752068;80;21148;-76
2022/12/12 12:46:05;;;;;;;9.40;5.90;;;;;;;11.28;85.62;98815.28;1769221;79;20190;-79
2022/12/12 12:49:24;;;;;;;10.50;6.28;;;;;;;11.04;86.86;98822.33;1757308;81;21681;-75
2022/12/12 12:52:37;;;;;;;10.55;5.90;;;;;;;11.03;87.30;98827.49;1751316;80;21223;-76
2022/12/12 12:55:52;;;;;;;10.75;6.30;;;;;;;11.17;86.63;98826.92;1746591;81;21218;-76
2022/12/12 12:59:01;;;;;;;15.00;6.75;;;;;;;11.13;86.41;98831.98;1753168;81;21243;-76
2022/12/12 13:02:08;;;;;;;8.23;5.70;;;;;;;11.09;86.69;98836.20;1758134;79;21224;-79
2022/12/12 13:05:35;;;;;;;8.18;5.65;;;;;;;11.12;86.70;98847.26;1752505;81;21167;-80
2022/12/12 13:09:05;;;;;;;9.85;5.78;;;;;;;11.04;87.02;98851.06;1699660;81;21196;-80
2022/12/12 13:12:30;;;;;;;;;;;;;;;10.82;88.00;98866.91;1746193;79;21151;-76
2022/12/12 13:15:44;;;;;;;11.05;5.97;;;;;;;10.85;88.16;98870.56;1747267;79;20220;-77
2022/12/12 13:18:51;;;;;;;10.00;5.92;;;;;;;11.08;87.34;98874.73;1742471;81;21140;-77
2022/12/12 13:22:05;;;;;;;8.05;5.17;;;;;;;11.18;86.42;98875.13;1760786;79;21136;-78
2022/12/12 13:25:45;;;;;;;11.55;6.17;;;;;;;11.19;85.94;98872.16;1754132;81;21788;-79
2022/12/12 13:28:59;;;;;;;9.20;5.80;;;;;;;10.96;86.13;98875.41;1743617;81;21825;-78
2022/12/12 13:32:24;;;;;;;7.87;5.45;;;;;;;11.00;85.95;98875.26;1752262;79;21916;-80
2022/12/12 13:35:47;;;;;;;8.03;5.60;;;;;;;11.02;86.11;98881.08;1743682;80;21231;-77
2022/12/12 13:39:00;;;;;;;9.75;6.28;;;;;;;10.89;86.29;98873.72;1749936;80;21131;-76
2022/12/12 13:42:13;;;;;;;10.53;5.45;;;;;;;10.84;86.31;98878.47;1754749;80;21135;-76
2022/12/12 13:45:42;;;;;;;9.85;6.40;;;;;;;10.81;86.23;98884.34;1754157;80;21747;-76
2022/12/12 13:48:49;;;;;;;12.60;8.53;;;;;;;11.04;85.53;98889.89;1755617;80;21148;-77
2022/12/12 13:51:54;;;;;;;10.58;7.25;;;;;;;10.92;85.38;98891.92;1747009;80;21133;-77
2022/12/12 13:55:22;;;;;;;14.80;7.83;;;;;;;11.01;85.17;98885.70;1751772;80;21279;-78
2022/12/12 13:58:42;;;;;;;12.55;7.55;;;;;;;11.10;84.78;98895.34;1754164;80;21149;-76
2022/12/12 14:01:48;;;;;;;12.30;7.22;;;;;;;10.91;85.34;98888.85;1751944;80;21145;-76
2022/12/12 14:04:53;;;;;;;12.00;8.13;;;;;;;10.65;86.76;98902.58;1753509;80;21542;-77
2022/12/12 14:08:15;;;;;;;12.50;7.15;;;;;;;10.67;87.07;98912.77;1745158;80;21229;-76
2022/12/12 14:11:17;;;;;;;13.58;8.03;;;;;;;10.58;87.33;98901.19;1757210;81;21778;-77
2022/12/12 14:14:27;;;;;;;9.93;7.30;;;;;;;10.67;87.17;98900.45;1749137;81;21807;-77
2022/12/12 14:17:34;;;;;;;12.60;8.05;;;;;;;10.66;87.46;98908.35;1733998;81;21681;-77
2022/12/12 14:20:43;;;;;;;13.88;8.45;;;;;;;10.60;87.54;98903.20;1751364;81;21690;-77
2022/12/12 14:23:51;;;;;;;13.78;8.53;;;;;;;10.44;88.08;98908.58;1757291;81;21786;-77
2022/12/12 14:26:56;;;;;;;11.60;7.60;;;;;;;10.34;88.42;98918.22;1758267;81;21178;-77
2022/12/12 14:30:02;;;;;;;15.40;9.25;;;;;;;10.45;88.68;98912.98;1758759;81;21190;-77
2022/12/12 14:33:21;;;;;;;16.65;8.98;;;;;;;10.47;88.74;98921.80;1757388;81;21254;-77
2022/12/12 14:36:36;;;;;;;13.28;8.45;;;;;;;10.49;88.57;98920.22;1760862;79;21163;-77
2022/12/12 14:39:46;;;;;;;12.75;8.53;;;;;;;10.49;88.37;98934.76;1740081;81;21214;-77
2022/12/12 14:43:13;;;;;;;16.30;8.70;;;;;;;10.63;87.74;98937.47;1777363;79;21166;-77
2022/12/12 14:46:23;;;;;;;13.88;8.63;;;;;;;10.65;87.36;98943.59;1779985;79;21199;-77
2022/12/12 14:49:28;;;;;;;12.98;8.48;;;;;;;10.54;87.85;98942.83;1795660;79;21175;-77
2022/12/12 14:52:34;;;;;;;13.58;7.97;;;;;;;10.63;87.70;98945.18;1764941;79;21140;-77
2022/12/12 14:55:38;;;;;;;12.13;7.97;;;;;;;10.62;87.33;98955.77;1782256;79;21186;-76
2022/12/12 14:58:57;;;;;;;12.95;8.40;;;;;;;10.70;87.45;98954.20;1742151;81;21166;-76